createdAt,value
2022-08-26T00:04:34.993Z,8.19
2022-08-26T00:09:50.173Z,8.19
2022-08-26T00:14:53.552Z,8.02
2022-08-26T00:20:02.114Z,8.02
2022-08-26T00:25:11.839Z,8.11
2022-08-26T00:30:26.765Z,8.11
2022-08-26T00:35:28.817Z,8.14
2022-08-26T00:40:38.597Z,8.14
2022-08-26T00:45:48.302Z,7.89
2022-08-26T00:50:56.187Z,7.89
2022-08-26T00:56:05.701Z,8.01
2022-08-26T01:01:14.505Z,8.01
2022-08-26T01:06:23.987Z,8.16
2022-08-26T01:11:31.397Z,8.16
2022-08-26T01:16:44.618Z,8.26
2022-08-26T01:21:50.937Z,8.26
2022-08-26T01:27:00.693Z,8.21
2022-08-26T01:32:08.529Z,8.21
2022-08-26T01:37:18.997Z,8.3
2022-08-26T01:42:30.067Z,8.3
2022-08-26T01:47:41.600Z,8.22
2022-08-26T01:52:55.034Z,8.22
2022-08-26T01:57:57.952Z,7.97
2022-08-26T02:03:40.131Z,7.97
2022-08-26T02:08:56.664Z,8.14
2022-08-26T02:14:10.499Z,8.14
2022-08-26T02:19:26.653Z,8.34
2022-08-26T02:24:41.493Z,8.29
2022-08-26T02:29:56.827Z,8.29
2022-08-26T02:35:13.175Z,8.39
2022-08-26T02:40:27.483Z,8.39
2022-08-26T02:45:45.498Z,8.33
2022-08-26T02:50:12.308Z,8.33
2022-08-26T02:54:42.911Z,8.19
2022-08-26T02:59:53.157Z,8.19
2022-08-26T03:05:03.079Z,8.54
2022-08-26T03:10:12.686Z,8.54
2022-08-26T03:15:21.163Z,8.61
2022-08-26T03:20:30.277Z,8.61
2022-08-26T03:25:40.062Z,8.4
2022-08-26T03:30:49.207Z,8.4
2022-08-26T03:35:58.269Z,8.86
2022-08-26T03:41:07.008Z,8.86
2022-08-26T03:46:16.870Z,9.34
2022-08-26T03:51:26.463Z,9.34
2022-08-26T03:56:36.051Z,9.38
2022-08-26T04:01:44.918Z,9.38
2022-08-26T04:06:54.292Z,9.81
2022-08-26T04:12:04.925Z,9.81
2022-08-26T04:17:13.788Z,10.7
2022-08-26T04:22:25.286Z,10.7
2022-08-26T04:27:34.363Z,10.4
2022-08-26T04:32:42.570Z,10.4
2022-08-26T04:37:51.547Z,10.5
2022-08-26T04:43:00.316Z,10.5
2022-08-26T04:48:11.284Z,10.99
2022-08-26T04:53:18.284Z,10.99
2022-08-26T04:58:26.742Z,10.97
2022-08-26T05:03:36.507Z,10.97
2022-08-26T05:08:44.352Z,11.58
2022-08-26T05:13:54.121Z,11.58
2022-08-26T05:19:03.233Z,11.51
2022-08-26T05:24:13.023Z,11.51
2022-08-26T05:29:22.912Z,12.86
2022-08-26T05:34:30.898Z,12.86
2022-08-26T05:39:51.685Z,13.19
2022-08-26T05:44:56.443Z,13.56
2022-08-26T05:50:00.548Z,13.56
2022-08-26T05:55:09.636Z,13.23
2022-08-26T06:00:24.217Z,13.23
2022-08-26T06:05:40.417Z,13.33
2022-08-26T06:10:55.495Z,13.33
2022-08-26T06:16:10.799Z,12.44
2022-08-26T06:21:28.934Z,12.44
2022-08-26T06:26:42.711Z,13.47
2022-08-26T06:31:57.366Z,13.47
2022-08-26T06:37:12.223Z,13.91
2022-08-26T06:42:29.859Z,13.91
2022-08-26T06:47:45.863Z,13.42
2022-08-26T06:53:02.046Z,13.42
2022-08-26T06:57:35.193Z,13.36
2022-08-26T07:02:08.484Z,13.36
2022-08-26T07:07:22.168Z,12.41
2022-08-26T07:12:25.290Z,12.41
2022-08-26T07:17:34.191Z,12.36
2022-08-26T07:22:46.598Z,12.36
2022-08-26T07:27:55.716Z,10.09
2022-08-26T07:33:10.949Z,10.09
2022-08-26T07:38:15.869Z,11.03
2022-08-26T07:43:25.639Z,11.03
2022-08-26T07:48:35.794Z,11.11
2022-08-26T07:53:53.499Z,11.11
2022-08-26T07:58:55.556Z,11.3
2022-08-26T08:04:14.039Z,11.3
2022-08-26T08:09:22.605Z,11.58
2022-08-26T08:14:31.243Z,11.58
2022-08-26T08:19:41.007Z,11.78
2022-08-26T08:24:53.402Z,11.78
2022-08-26T08:30:01.153Z,12
2022-08-26T08:35:12.099Z,12
2022-08-26T08:40:21.049Z,12
2022-08-26T08:45:37.415Z,12
2022-08-26T08:50:41.444Z,11.48
2022-08-26T08:55:49.799Z,11.83
2022-08-26T09:01:02.587Z,11.83
2022-08-26T09:06:10.078Z,11.35
2022-08-26T09:11:19.235Z,11.35
2022-08-26T09:16:29.364Z,11.56
2022-08-26T09:21:39.267Z,11.56
2022-08-26T09:26:50.678Z,10.88
2022-08-26T09:31:58.278Z,10.88
2022-08-26T09:37:07.396Z,10.83
2022-08-26T09:42:17.006Z,10.83
2022-08-26T09:47:25.699Z,10.23
2022-08-26T09:52:37.058Z,10.23
2022-08-26T09:58:10.466Z,10.43
2022-08-26T10:03:18.649Z,10.43
2022-08-26T10:08:25.270Z,10.88
2022-08-26T10:13:36.193Z,10.88
2022-08-26T10:18:45.795Z,10.68
2022-08-26T10:24:02.595Z,10.68
2022-08-26T10:29:18.192Z,10.47
2022-08-26T10:34:37.487Z,10.47
2022-08-26T10:45:07.509Z,10.02
2022-08-26T10:50:24.679Z,9.22
2022-08-26T11:00:58.985Z,9.1
2022-08-26T11:11:48.087Z,8.66
2022-08-26T11:12:28.008Z,8.66
2022-08-26T11:17:09.313Z,8.64
2022-08-26T11:43:14.776Z,8.32
2022-08-26T11:54:50.062Z,8.61
2022-08-26T11:55:50.037Z,8.61
2022-08-26T12:00:59.080Z,8.85
2022-08-26T12:08:00.044Z,8.35
2022-08-26T12:20:14.915Z,8.69
2022-08-26T12:30:45.961Z,8.39
2022-08-26T12:41:18.978Z,8.65
2022-08-26T12:46:35.263Z,8.65
2022-08-26T12:51:52.360Z,8.52
2022-08-26T12:57:09.320Z,8.52
2022-08-26T13:02:26.467Z,8.42
2022-08-26T13:06:52.119Z,8.42
2022-08-26T13:11:20.368Z,8.41
2022-08-26T13:16:37.218Z,8.41
2022-08-26T13:21:54.689Z,8.09
2022-08-26T13:27:10.761Z,8.09
2022-08-26T13:31:06.785Z,7.94
2022-08-26T13:36:14.913Z,7.94
2022-08-26T13:41:30.001Z,7.85
2022-08-26T13:46:34.602Z,7.85
2022-08-26T13:51:42.945Z,7.71
2022-08-26T13:56:52.672Z,7.71
2022-08-26T14:02:02.478Z,8.03
2022-08-26T14:07:12.194Z,8.03
2022-08-26T14:12:21.370Z,7.95
2022-08-26T14:17:32.587Z,7.96
2022-08-26T14:23:14.800Z,7.96
2022-08-26T14:27:59.632Z,7.94
2022-08-26T14:33:07.495Z,7.94
2022-08-26T14:38:16.847Z,7.85
2022-08-26T14:43:26.280Z,7.85
2022-08-26T14:48:38.209Z,7.8
2022-08-26T14:53:45.179Z,7.8
2022-08-26T14:58:57.989Z,7.84
2022-08-26T15:04:12.223Z,7.84
2022-08-26T15:14:42.119Z,7.5
2022-08-26T15:19:59.781Z,7.82
2022-08-26T15:25:16.939Z,7.82
2022-08-26T15:30:33.151Z,7.92
2022-08-26T15:35:50.602Z,7.92
2022-08-26T15:41:07.393Z,7.74
2022-08-26T15:57:00.356Z,7.55
2022-08-26T16:54:02.701Z,7.55
2022-08-26T17:05:45.098Z,7.6
2022-08-26T18:03:03.068Z,7.58
2022-08-26T18:07:27.902Z,7.58
2022-08-26T18:11:14.111Z,7.58
2022-08-26T18:16:23.871Z,7.58
2022-08-26T18:21:32.364Z,7.73
2022-08-26T18:26:42.121Z,7.73
2022-08-26T18:31:51.258Z,7.53
2022-08-26T18:37:00.695Z,7.53
2022-08-26T18:42:13.341Z,7.49
2022-08-26T18:47:22.431Z,7.49
2022-08-26T18:52:30.286Z,7.62
2022-08-26T18:57:39.397Z,7.62
2022-08-26T19:02:56.713Z,7.45
2022-08-26T19:07:56.353Z,7.45
2022-08-26T19:13:08.357Z,7.66
2022-08-26T19:18:14.590Z,7.66
2022-08-26T19:23:34.079Z,7.69
2022-08-26T19:28:36.048Z,7.69
2022-08-26T19:33:45.157Z,7.71
2022-08-26T19:38:53.659Z,7.71
2022-08-26T19:44:04.147Z,7.4
2022-08-26T19:49:12.514Z,7.66
2022-08-26T19:54:21.498Z,7.66
2022-08-26T19:59:31.037Z,7.57
2022-08-26T20:04:52.568Z,7.57
2022-08-26T20:10:10.580Z,7.66
2022-08-26T20:15:23.595Z,7.66
2022-08-26T20:20:38.452Z,7.63
2022-08-26T20:25:53.322Z,7.63
2022-08-26T20:31:08.223Z,7.84
2022-08-26T20:36:24.379Z,7.84
2022-08-26T20:46:56.067Z,7.57
2022-08-26T20:57:28.384Z,7.8
2022-08-26T21:08:00.110Z,7.51
2022-08-26T21:18:45.766Z,7.62
